Terminal Aerodrome Forecast
Issued by NWS Jackson, MS

Home | Current Version | Previous Version | Text Only | Print | Product List | Glossary On
Versions: 1 2 3 4 5 6 7 8 9 10 11 12 13 14 15 16 17 18 19 20 21 22 23 24 25
000
FTUS44 KJAN 240543
TAFMEI
TAF
KMEI 240543Z 2406/2506 18004KT P6SM SKC
     FM241100 00000KT 6SM BR FEW005 SCT250
     FM241330 VRB03KT P6SM FEW015 SCT030
     FM241900 04004KT P6SM VCTS SCT030 BKN050CB
     FM250100 VRB03KT P6SM SCT100=

USA.gov is the U.S. government's official web portal to all federal, state and local government web resources and services.